Time;durP1;ratioP1;P1;durP2;ratioP2;P2;SDS_P1;SDS_P2;PMS_P1;PMS_P2;Temp;Humidity;BMP_temperature;BMP_pressure;BME280_temperature;BME280_humidity;BME280_pressure;Samples;Min_cycle;Max_cycle;Signal;HPM_P1;HPM_P2
2022/12/14 00:01:26;;;;;;;17.30;10.20;;;-4.10;72.10;;;-5.07;73.39;96904.53;5065744;28;20907;-78
2022/12/14 00:03:55;;;;;;;21.10;10.13;;;-4.20;72.00;;;-5.04;73.24;96901.63;5070651;28;20967;-78
2022/12/14 00:06:26;;;;;;;18.53;10.90;;;-4.20;71.80;;;-5.21;73.11;96880.31;5065476;28;20810;-79
2022/12/14 00:08:56;;;;;;;17.33;10.50;;;-4.20;72.10;;;-4.89;73.04;96884.34;5074116;28;22092;-76
2022/12/14 00:11:25;;;;;;;17.50;9.87;;;-4.10;72.00;;;-4.89;73.22;96872.97;5069425;28;20447;-78
2022/12/14 00:13:55;;;;;;;14.50;9.20;;;-4.10;72.30;;;-5.01;72.95;96854.72;5068718;28;20464;-77
2022/12/14 00:16:24;;;;;;;15.80;10.95;;;-4.00;72.10;;;-4.74;72.47;96892.59;5083698;28;20449;-80
2022/12/14 00:18:54;;;;;;;18.07;10.60;;;-4.00;71.90;;;-4.91;72.50;96896.84;5102134;27;20211;-76
2022/12/14 00:21:24;;;;;;;17.20;10.53;;;-4.00;71.60;;;-5.13;72.49;96855.91;5075004;28;20452;-80
2022/12/14 00:23:53;;;;;;;16.73;10.47;;;-4.00;71.40;;;-4.92;72.03;96900.47;5070365;28;20542;-80
2022/12/14 00:26:24;;;;;;;15.10;9.97;;;-4.00;71.20;;;-4.90;72.16;96898.50;5067448;28;20964;-77
2022/12/14 00:28:57;;;;;;;14.70;9.60;;;-4.00;71.10;;;-4.89;72.22;96865.06;5082625;27;20461;-78
2022/12/14 00:31:26;;;;;;;19.13;10.73;;;-4.00;71.30;;;-5.19;72.14;96845.94;5050702;28;20472;-75
2022/12/14 00:33:54;;;;;;;14.20;9.73;;;-4.00;71.10;;;-4.97;72.27;96884.25;5065706;28;20463;-76
2022/12/14 00:36:21;;;;;;;14.60;9.23;;;-4.00;71.00;;;-4.99;72.50;96879.13;5068723;28;20837;-76
2022/12/14 00:38:49;;;;;;;15.60;10.00;;;-4.00;71.20;;;-5.01;72.68;96874.97;5067472;28;20529;-80
2022/12/14 00:41:16;;;;;;;12.80;10.00;;;-4.10;71.10;;;-5.60;72.49;96769.88;5068222;28;20984;-80
2022/12/14 00:43:45;;;;;;;15.83;10.10;;;-4.00;71.20;;;-5.15;72.87;96873.66;5053725;28;21105;-78
2022/12/14 00:46:12;;;;;;;14.90;10.30;;;-4.10;71.00;;;-5.30;73.17;96844.31;5069820;28;20534;-77
2022/12/14 00:48:40;;;;;;;15.70;10.40;;;-4.20;71.20;;;-5.16;73.05;96846.47;5083787;28;20460;-78
2022/12/14 00:51:07;;;;;;;19.27;10.90;;;-4.10;71.30;;;-5.57;72.52;96759.03;5079010;28;21030;-75
2022/12/14 00:53:34;;;;;;;18.87;11.70;;;-4.10;71.50;;;-5.00;72.95;96863.47;5088770;28;20461;-75
2022/12/14 00:56:07;;;;;;;16.70;9.53;;;-4.20;71.50;;;-5.08;72.55;96852.81;5089038;28;20463;-75
2022/12/14 00:58:34;;;;;;;18.57;10.40;;;-4.20;71.30;;;-5.10;73.01;96845.06;5087252;28;20977;-76
2022/12/14 01:01:06;;;;;;;17.63;11.27;;;-4.20;71.50;;;-6.55;73.00;96641.84;5087015;28;20632;-77
2022/12/14 01:03:34;;;;;;;16.73;10.43;;;-4.20;71.30;;;-5.30;73.65;96844.31;5091020;28;20452;-75
2022/12/14 01:06:02;;;;;;;20.77;11.00;;;-4.30;71.60;;;-5.55;73.39;96796.56;5092134;28;20482;-77
2022/12/14 01:08:34;;;;;;;17.73;9.40;;;-4.20;71.50;;;-5.36;73.15;96829.09;5091051;28;20448;-81
2022/12/14 01:11:05;;;;;;;17.70;11.63;;;-4.20;71.50;;;-5.19;72.84;96854.66;5104336;28;20448;-77
2022/12/14 01:13:33;;;;;;;14.10;9.83;;;-4.20;71.20;;;-5.23;73.28;96868.25;5084471;28;20439;-79
2022/12/14 01:16:08;;;;;;;16.30;9.80;;;-4.30;71.40;;;-5.08;73.23;96855.44;5075636;28;20449;-76
2022/12/14 01:18:38;;;;;;;15.77;10.23;;;-4.20;71.60;;;-5.07;72.96;96872.94;5112943;27;20478;-76
2022/12/14 01:21:11;;;;;;;19.77;11.33;;;-4.20;71.40;;;-5.08;72.89;96871.25;5111463;27;20444;-75
2022/12/14 01:23:39;;;;;;;20.23;11.37;;;-4.20;71.30;;;-5.15;72.75;96863.94;5085346;28;20449;-76
2022/12/14 01:26:07;;;;;;;21.20;11.40;;;-4.20;71.30;;;-4.94;71.96;96876.03;5087980;28;20837;-75
2022/12/14 01:28:34;;;;;;;19.30;10.37;;;-4.10;71.50;;;-4.89;72.12;96897.53;5078014;28;20860;-75
2022/12/14 01:31:09;;;;;;;19.30;10.40;;;-4.10;71.20;;;-4.76;72.06;96889.28;5074352;28;20494;-77
2022/12/14 01:33:36;;;;;;;16.53;11.43;;;-4.00;71.50;;;-4.73;71.97;96888.16;5078065;28;20457;-75
2022/12/14 01:36:06;;;;;;;22.23;10.90;;;-4.00;71.20;;;-4.78;71.87;96895.66;5078504;28;20509;-77
2022/12/14 01:38:33;;;;;;;21.47;11.57;;;-3.90;71.30;;;-5.50;72.53;96770.66;5098030;28;20456;-78
2022/12/14 01:41:01;;;;;;;18.77;11.37;;;-3.90;71.40;;;-4.92;72.58;96874.13;5086562;28;20491;-77
2022/12/14 01:43:48;;;;;;;18.47;11.13;;;-4.00;71.20;;;-4.96;72.69;96862.19;5075141;28;20522;-76
2022/12/14 01:46:24;;;;;;;15.63;11.07;;;-4.00;71.20;;;-4.87;72.66;96863.13;5078746;28;20504;-78
2022/12/14 01:48:55;;;;;;;20.73;11.53;;;-4.00;71.40;;;-5.35;72.50;96752.56;5089052;28;20472;-75
2022/12/14 01:51:24;;;;;;;23.07;10.97;;;-3.90;71.60;;;-4.80;72.18;96855.44;5089956;28;20486;-73
2022/12/14 01:53:51;;;;;;;24.57;11.77;;;-3.90;71.40;;;-4.87;72.42;96848.16;5089822;28;21135;-76
2022/12/14 01:56:19;;;;;;;19.83;10.47;;;-4.00;71.30;;;-4.72;72.10;96839.75;5089234;28;20440;-75
2022/12/14 01:58:46;;;;;;;17.77;10.77;;;-3.90;71.30;;;-4.80;72.25;96834.38;5100197;28;20455;-76
2022/12/14 02:01:15;;;;;;;16.50;10.47;;;-3.90;71.00;;;-4.73;71.77;96830.19;5090830;28;20455;-76
2022/12/14 02:03:47;;;;;;;18.10;11.60;;;-3.90;70.90;;;-5.04;71.42;96801.50;5084740;28;20908;-78
2022/12/14 02:06:21;;;;;;;18.10;10.37;;;-3.90;70.70;;;-4.92;71.59;96826.69;5092575;28;20839;-75
2022/12/14 02:08:51;;;;;;;16.20;10.20;;;-3.90;70.40;;;-4.85;71.52;96817.19;5069853;28;20498;-75
2022/12/14 02:11:29;;;;;;;17.90;10.63;;;-3.90;70.50;;;-4.67;71.17;96824.31;5129484;27;20488;-75
2022/12/14 02:13:57;;;;;;;15.40;9.03;;;-3.90;70.70;;;-4.58;71.09;96818.16;5101426;28;20539;-77
2022/12/14 02:16:26;;;;;;;17.00;9.30;;;-3.80;70.80;;;-5.28;71.22;96723.84;5078313;28;20453;-76
2022/12/14 02:18:55;;;;;;;21.00;10.73;;;-3.80;70.50;;;-5.66;71.09;96692.31;5077025;28;20452;-77
2022/12/14 02:21:30;;;;;;;18.40;10.10;;;-3.90;70.30;;;-4.70;71.28;96819.34;5080872;28;20548;-76
2022/12/14 02:25:00;;;;;;;22.93;12.00;;;-3.90;70.50;;;-4.81;71.28;96807.19;5083301;28;20451;-80
2022/12/14 02:27:57;;;;;;;31.03;13.03;;;-3.90;70.40;;;-4.88;71.11;96798.22;5044782;28;20463;-78
2022/12/14 02:30:27;;;;;;;21.60;12.13;;;-3.90;70.10;;;-4.85;71.60;96827.75;5086446;28;20473;-81
2022/12/14 02:33:20;;;;;;;23.40;10.93;;;-3.90;70.30;;;-4.70;71.42;96814.06;5094072;28;20448;-79
2022/12/14 02:35:51;;;;;;;25.93;11.90;;;-3.80;70.70;;;-4.64;72.01;96828.47;5084375;28;20444;-76
2022/12/14 02:38:35;;;;;;;22.33;12.63;;;-3.80;70.70;;;-4.63;70.97;96814.28;5085506;28;20465;-79
2022/12/14 02:41:12;;;;;;;21.27;12.00;;;-3.80;70.40;;;-4.82;71.12;96794.16;5082298;28;20440;-77
2022/12/14 02:43:50;;;;;;;23.83;10.37;;;-3.80;70.20;;;-5.12;70.51;96733.75;5096883;28;20953;-79
2022/12/14 02:46:25;;;;;;;16.93;11.13;;;-3.80;70.10;;;-4.69;71.36;96802.53;5086998;28;20559;-76
2022/12/14 02:49:03;;;;;;;18.23;11.47;;;-3.80;70.50;;;-4.75;71.03;96776.78;5073866;28;20833;-77
2022/12/14 02:51:44;;;;;;;21.87;11.90;;;-3.80;70.20;;;-4.55;70.78;96770.38;5073447;28;20442;-77
2022/12/14 02:54:17;;;;;;;17.27;10.50;;;-3.70;70.30;;;-4.70;71.06;96774.53;5094808;28;20438;-78
2022/12/14 02:56:50;;;;;;;26.90;13.20;;;-3.70;70.10;;;-4.87;70.92;96755.06;5087731;28;20445;-77
2022/12/14 02:59:18;;;;;;;26.57;11.93;;;-3.80;69.80;;;-4.76;70.33;96769.88;5093843;28;20452;-77
2022/12/14 03:01:50;;;;;;;29.03;13.93;;;-3.80;69.90;;;-5.36;71.26;96668.47;5088188;28;20459;-79
2022/12/14 03:04:17;;;;;;;28.45;12.45;;;-3.80;70.00;;;-4.65;70.98;96766.16;5083068;28;20951;-75
2022/12/14 03:06:57;;;;;;;37.57;13.60;;;-3.80;69.90;;;-4.94;70.48;96703.97;5090694;28;20218;-76
2022/12/14 03:09:27;;;;;;;24.63;13.27;;;-3.80;70.10;;;-4.55;70.44;96757.19;5090435;28;20465;-78
2022/12/14 03:11:58;;;;;;;32.53;12.70;;;-3.80;69.90;;;-4.70;70.90;96756.91;5101971;28;20448;-76
2022/12/14 03:14:31;;;;;;;27.80;12.20;;;-3.80;69.80;;;-4.62;70.79;96745.63;5090858;28;20681;-77
2022/12/14 03:17:09;;;;;;;27.80;13.00;;;-3.80;70.00;;;-4.46;70.82;96744.91;5084818;28;20469;-78
2022/12/14 03:19:41;;;;;;;23.70;12.80;;;-3.80;70.30;;;-4.34;70.27;96729.69;5078546;28;20506;-77
2022/12/14 03:22:14;;;;;;;23.60;12.00;;;-3.70;70.00;;;-4.47;70.16;96739.81;5084463;28;20440;-76
2022/12/14 03:24:47;;;;;;;22.97;10.30;;;-3.60;69.90;;;-4.89;69.79;96668.28;5077673;28;20475;-80
2022/12/14 03:27:20;;;;;;;19.43;10.83;;;-3.60;69.70;;;-4.56;70.35;96744.16;5081350;28;20893;-80
2022/12/14 03:29:52;;;;;;;18.07;9.50;;;-3.70;69.50;;;-4.41;70.16;96739.19;5080359;28;20449;-74
2022/12/14 03:32:25;;;;;;;17.73;10.70;;;-3.70;69.60;;;-4.40;69.71;96738.22;5083431;28;20508;-76
2022/12/14 03:34:59;;;;;;;16.00;10.47;;;-3.60;69.40;;;-5.89;69.39;96513.81;5092727;28;20494;-76
2022/12/14 03:37:50;;;;;;;18.37;11.20;;;-3.60;69.30;;;-4.62;69.80;96756.16;5079778;28;20459;-79
2022/12/14 03:40:18;;;;;;;14.10;8.63;;;-3.70;69.00;;;-4.78;70.40;96711.16;5091678;28;20515;-77
2022/12/14 03:42:58;;;;;;;16.90;10.33;;;-3.70;69.30;;;-4.63;70.31;96720.22;5083488;28;20450;-74
2022/12/14 03:45:36;;;;;;;21.00;11.37;;;-3.70;69.50;;;-4.72;70.26;96697.41;5073815;28;20448;-75
2022/12/14 03:48:15;;;;;;;19.40;11.00;;;-3.70;69.40;;;-4.80;70.70;96690.25;5085885;28;20512;-75
2022/12/14 03:50:47;;;;;;;17.33;11.40;;;-3.70;69.50;;;-4.67;70.29;96687.22;5116433;27;20788;-75
2022/12/14 03:53:20;;;;;;;15.87;10.03;;;-3.70;69.50;;;-4.57;69.90;96693.25;5096623;28;20455;-75
2022/12/14 03:55:57;;;;;;;18.90;11.00;;;-3.70;69.40;;;-4.58;70.23;96702.16;5083485;28;20483;-77
2022/12/14 03:58:37;;;;;;;16.10;9.80;;;-3.70;69.60;;;-4.60;70.29;96708.53;5092086;28;20806;-75
2022/12/14 04:01:11;;;;;;;15.40;10.23;;;-3.70;69.30;;;-4.62;70.20;96692.91;5117056;27;20449;-76
2022/12/14 04:03:50;;;;;;;16.77;10.10;;;-3.70;69.40;;;-4.57;70.35;96714.34;5078898;28;20556;-76
2022/12/14 04:06:28;;;;;;;18.60;10.60;;;-3.80;69.50;;;-4.76;70.47;96659.16;5099040;28;20467;-77
2022/12/14 04:09:06;;;;;;;15.53;9.30;;;-3.70;69.50;;;-4.59;70.22;96687.31;5098942;28;20459;-74
2022/12/14 04:20:11;;;;;;;15.17;10.93;;;-3.80;69.70;;;-4.69;70.69;96694.47;5063933;28;20446;-75
2022/12/14 04:22:45;;;;;;;25.30;10.57;;;-3.90;69.60;;;-5.15;70.17;96616.34;5101628;28;20464;-76
2022/12/14 04:29:55;;;;;;;17.93;11.33;;;-3.80;69.90;;;-4.66;70.51;96678.34;5120451;27;20444;-77
2022/12/14 04:31:06;;;;;;;18.50;10.40;;;-3.80;70.00;;;-4.81;70.92;96664.03;5087141;28;20452;-77
2022/12/14 04:33:46;;;;;;;15.17;9.83;;;-3.90;69.90;;;-4.48;70.87;96685.38;5100454;28;20517;-80
2022/12/14 04:36:22;;;;;;;18.93;10.20;;;-3.90;70.20;;;-4.53;70.38;96690.31;5105251;28;20456;-77
2022/12/14 04:38:56;;;;;;;31.13;11.90;;;-3.80;70.10;;;-4.84;70.33;96649.38;5083461;28;20844;-75
2022/12/14 04:41:30;;;;;;;19.67;10.43;;;-3.80;69.80;;;-4.48;70.52;96677.47;5095491;28;20492;-77
2022/12/14 04:44:04;;;;;;;18.00;10.17;;;-3.80;69.90;;;-4.46;70.37;96672.91;5080040;28;20470;-78
2022/12/14 04:46:34;;;;;;;18.57;11.10;;;-3.80;69.80;;;-4.35;70.03;96664.72;5081001;28;20555;-74
2022/12/14 04:49:08;;;;;;;16.07;9.33;;;-3.70;69.80;;;-4.46;70.37;96657.09;5089140;28;20485;-73
2022/12/14 04:51:47;;;;;;;14.27;9.13;;;-3.70;69.70;;;-4.58;70.25;96644.16;5088626;28;20465;-78
2022/12/14 04:54:22;;;;;;;18.20;9.77;;;-3.70;69.70;;;-4.58;70.37;96630.97;5088932;28;20935;-75
2022/12/14 04:56:56;;;;;;;13.13;9.53;;;-3.70;69.70;;;-5.12;70.16;96568.63;5083718;28;20471;-77
2022/12/14 04:59:25;;;;;;;13.57;9.50;;;-3.80;69.50;;;-5.23;71.15;96565.41;5113932;27;20480;-76
2022/12/14 05:02:05;;;;;;;16.20;9.80;;;-3.80;69.70;;;-4.76;70.83;96640.72;5087160;27;20449;-79
2022/12/14 05:04:53;;;;;;;16.60;10.27;;;-3.90;69.70;;;-4.95;71.11;96618.81;5097104;28;20973;-75
2022/12/14 05:07:34;;;;;;;17.27;11.27;;;-3.90;69.70;;;-4.81;71.01;96632.41;5093313;28;20556;-79
2022/12/14 05:10:07;;;;;;;13.83;11.10;;;-4.00;69.70;;;-4.98;70.73;96600.66;5089164;28;20547;-75
2022/12/14 05:12:42;;;;;;;17.00;9.13;;;-4.00;69.50;;;-5.00;70.76;96584.19;5081151;28;20490;-76
2022/12/14 05:15:16;;;;;;;14.30;9.67;;;-4.00;69.70;;;-4.76;71.07;96625.72;5084446;28;20506;-75
2022/12/14 05:17:45;;;;;;;16.40;9.57;;;-3.90;70.00;;;-4.91;70.86;96585.91;5079776;28;20454;-76
2022/12/14 05:20:20;;;;;;;15.67;9.07;;;-3.90;69.90;;;-4.51;70.54;96625.91;5093282;28;20452;-80
2022/12/14 05:22:49;;;;;;;12.77;9.57;;;-3.90;69.90;;;-4.80;69.84;96582.22;5093742;28;20538;-77
2022/12/14 05:25:17;;;;;;;18.23;10.33;;;-3.90;69.70;;;-4.67;70.45;96607.34;5082603;28;20458;-77
2022/12/14 05:27:45;;;;;;;17.93;12.20;;;-3.80;69.80;;;-5.29;71.11;96557.13;5099687;27;20482;-75
2022/12/14 05:30:13;;;;;;;16.93;10.67;;;-4.00;69.60;;;-4.87;71.36;96607.50;5077897;28;20443;-74
2022/12/14 05:32:41;;;;;;;15.40;10.53;;;-4.00;69.90;;;-4.85;71.52;96606.38;5081132;28;20444;-76
2022/12/14 05:35:12;;;;;;;16.27;10.37;;;-4.00;70.10;;;-4.79;71.87;96601.47;5076523;28;20457;-76
2022/12/14 05:37:40;;;;;;;13.87;9.73;;;-4.00;70.60;;;-5.21;70.99;96526.56;5073949;28;20457;-77
2022/12/14 05:40:11;;;;;;;19.90;12.00;;;-4.00;70.30;;;-4.80;71.75;96592.75;5067839;28;20758;-72
2022/12/14 05:42:38;;;;;;;15.37;10.97;;;-4.00;70.30;;;-4.76;71.45;96588.00;5069639;28;20474;-73
2022/12/14 05:45:08;;;;;;;19.80;12.10;;;-3.90;70.30;;;-4.71;71.07;96572.53;5073168;28;20460;-74
2022/12/14 05:47:35;;;;;;;18.70;11.23;;;-3.90;70.20;;;-4.79;71.79;96564.56;5074519;28;20472;-73
2022/12/14 05:50:03;;;;;;;17.10;10.83;;;-3.90;70.40;;;-4.67;71.41;96565.16;5081738;28;20454;-73
2022/12/14 05:52:30;;;;;;;17.67;10.67;;;-3.90;70.30;;;-4.75;71.26;96560.66;5094866;28;20436;-73
2022/12/14 05:54:57;;;;;;;16.37;10.63;;;-3.90;70.30;;;-4.79;71.33;96567.19;5085592;28;20448;-73
2022/12/14 05:57:26;;;;;;;16.80;9.80;;;-3.90;70.10;;;-4.59;71.55;96573.94;5074399;28;20462;-76
2022/12/14 05:59:53;;;;;;;16.40;11.13;;;-3.90;70.30;;;-4.55;70.74;96575.28;5078911;28;20487;-75
2022/12/14 06:02:20;;;;;;;19.97;11.47;;;-3.70;70.00;;;-4.49;70.71;96573.00;5108484;28;20448;-76
2022/12/14 06:04:47;;;;;;;16.10;9.97;;;-3.70;69.80;;;-4.33;70.10;96554.63;5084642;28;20463;-74
2022/12/14 06:07:15;;;;;;;16.00;10.27;;;-3.60;69.90;;;-4.37;69.94;96550.66;5086195;28;20530;-74
2022/12/14 06:09:42;;;;;;;22.93;9.80;;;-3.50;69.60;;;-4.41;70.19;96555.41;5090812;28;20457;-75
2022/12/14 06:12:10;;;;;;;18.07;10.83;;;-3.50;69.50;;;-4.47;70.09;96565.78;5117367;27;20455;-76
2022/12/14 06:14:38;;;;;;;16.63;10.60;;;-3.50;69.30;;;-4.27;70.33;96577.75;5107072;28;20436;-72
2022/12/14 06:17:06;;;;;;;17.50;10.93;;;-3.40;69.70;;;-4.07;69.64;96566.94;5091124;28;20456;-73
2022/12/14 06:19:33;;;;;;;13.43;9.40;;;-3.40;69.40;;;-4.04;69.35;96565.81;5109497;28;20457;-71
2022/12/14 06:22:01;;;;;;;14.40;9.40;;;-3.20;69.10;;;-4.14;68.45;96566.75;5097038;28;20448;-73
2022/12/14 06:24:28;;;;;;;14.10;9.37;;;-3.20;68.20;;;-3.94;67.95;96571.78;5098749;28;21298;-72
2022/12/14 06:26:55;;;;;;;15.13;10.10;;;-3.20;68.20;;;-4.24;67.98;96541.50;5109877;28;20475;-72
2022/12/14 06:29:22;;;;;;;15.57;10.07;;;-3.20;67.90;;;-4.00;67.81;96567.97;5111259;28;20456;-73
2022/12/14 06:31:51;;;;;;;16.00;9.83;;;-3.20;67.80;;;-4.12;67.79;96556.06;5087296;28;20462;-71
2022/12/14 06:34:18;;;;;;;16.40;11.23;;;-3.20;67.30;;;-4.08;67.94;96544.19;5081918;28;20475;-73
2022/12/14 06:36:46;;;;;;;19.53;9.73;;;-3.20;67.30;;;-4.24;67.84;96501.91;5080352;28;20461;-72
2022/12/14 06:39:16;;;;;;;14.63;9.20;;;-3.20;67.50;;;-3.97;67.76;96539.63;5075402;28;20488;-71
2022/12/14 06:41:44;;;;;;;16.10;9.90;;;-3.20;67.60;;;-3.92;67.79;96542.59;5073195;28;20462;-71
2022/12/14 06:44:14;;;;;;;12.93;9.43;;;-3.10;67.50;;;-4.03;67.42;96531.34;5079095;28;20447;-74
2022/12/14 06:46:41;;;;;;;12.43;9.33;;;-3.10;67.40;;;-4.03;68.08;96556.91;5076929;28;21047;-73
2022/12/14 06:49:15;;;;;;;12.47;9.13;;;-3.20;67.10;;;-4.06;67.96;96544.84;5092028;28;20473;-75
2022/12/14 06:51:44;;;;;;;14.60;9.80;;;-3.20;67.30;;;-3.86;67.66;96541.97;5093329;28;20773;-73
2022/12/14 06:54:12;;;;;;;15.07;9.70;;;-3.10;67.70;;;-4.04;68.07;96542.06;5072156;28;20472;-74
2022/12/14 06:56:41;;;;;;;21.73;11.17;;;-3.10;67.40;;;-3.53;67.68;96551.75;5071243;28;20458;-76
2022/12/14 06:59:09;;;;;;;14.03;9.73;;;-3.00;68.10;;;-3.61;66.88;96528.81;5108829;27;20456;-76
2022/12/14 07:01:37;;;;;;;15.73;9.80;;;-2.90;67.50;;;-3.44;66.79;96540.22;5077740;28;20468;-72
2022/12/14 07:04:06;;;;;;;19.37;10.73;;;-2.80;67.40;;;-3.63;66.83;96542.19;5079311;28;20515;-74
2022/12/14 07:06:38;;;;;;;16.67;11.10;;;-2.90;67.00;;;-3.54;66.91;96540.38;5089123;28;20467;-75
2022/12/14 07:09:08;;;;;;;17.13;10.80;;;-2.80;67.20;;;-3.50;67.00;96547.00;5091903;28;21438;-76
2022/12/14 07:11:37;;;;;;;17.13;11.23;;;-2.80;67.20;;;-3.52;67.08;96554.25;5082923;28;21297;-74
2022/12/14 07:14:05;;;;;;;21.97;11.00;;;-2.80;67.40;;;-3.46;67.21;96548.31;5082397;28;20456;-74
2022/12/14 07:16:35;;;;;;;20.90;12.07;;;-2.80;67.70;;;-3.59;67.12;96534.75;5079116;28;20464;-75
2022/12/14 07:19:03;;;;;;;15.90;11.30;;;-2.80;67.30;;;-3.58;67.09;96533.75;5081927;28;20804;-74
2022/12/14 07:21:30;;;;;;;18.10;11.27;;;-2.80;67.00;;;-3.70;66.90;96507.69;5095620;28;21257;-75
2022/12/14 07:24:01;;;;;;;14.87;10.70;;;-2.80;66.70;;;-3.71;66.89;96492.84;5092161;28;21431;-74
2022/12/14 07:26:29;;;;;;;18.17;11.90;;;-2.80;66.80;;;-3.65;67.16;96495.81;5079829;28;20468;-73
2022/12/14 07:28:59;;;;;;;17.50;10.50;;;-2.80;66.80;;;-3.70;66.61;96502.41;5076725;28;20456;-73
2022/12/14 07:31:29;;;;;;;18.53;10.53;;;-2.80;66.40;;;-3.65;66.76;96501.09;5075634;28;20574;-74
2022/12/14 07:33:58;;;;;;;14.83;9.70;;;-2.80;66.30;;;-3.83;66.75;96467.75;5081325;28;20448;-73
2022/12/14 07:36:28;;;;;;;15.77;10.27;;;-2.80;66.50;;;-3.58;66.44;96507.34;5074103;28;21090;-74
2022/12/14 07:38:55;;;;;;;13.23;10.07;;;-2.70;66.30;;;-3.63;66.71;96507.03;5072266;28;20484;-74
2022/12/14 07:41:26;;;;;;;16.00;9.63;;;-2.80;66.40;;;-3.51;65.91;96489.88;5078305;28;20460;-73
2022/12/14 07:43:55;;;;;;;16.10;11.23;;;-2.60;66.00;;;-3.54;65.57;96487.56;5090780;28;20473;-74
2022/12/14 07:46:24;;;;;;;15.90;10.73;;;-2.60;65.60;;;-3.33;65.62;96505.59;5075368;28;20453;-74
2022/12/14 07:48:54;;;;;;;18.07;10.63;;;-2.50;65.70;;;-3.09;65.47;96513.66;5079013;28;20463;-74
2022/12/14 07:51:24;;;;;;;15.23;9.83;;;-2.40;65.90;;;-3.31;65.35;96513.31;5076145;28;20918;-73
2022/12/14 07:53:52;;;;;;;15.80;10.60;;;-2.40;65.40;;;-3.11;64.96;96524.41;5072521;28;20462;-73
2022/12/14 07:56:22;;;;;;;13.57;9.13;;;-2.40;65.10;;;-3.30;64.27;96488.56;5078105;28;20461;-74
2022/12/14 07:58:51;;;;;;;14.23;9.13;;;-2.30;65.10;;;-3.16;64.31;96502.94;5086260;28;20972;-75
2022/12/14 08:01:22;;;;;;;18.73;9.53;;;-2.30;64.50;;;-3.01;63.91;96500.44;5082212;28;20521;-73
2022/12/14 08:03:51;;;;;;;17.73;10.43;;;-2.30;64.60;;;-3.72;64.44;96414.59;5082967;28;20528;-75
2022/12/14 08:06:21;;;;;;;12.97;9.53;;;-2.30;64.20;;;-3.18;64.44;96502.28;5083096;28;21004;-74
2022/12/14 08:08:49;;;;;;;15.53;10.97;;;-2.30;64.30;;;-3.37;65.11;96501.59;5084397;28;20529;-74
2022/12/14 08:11:17;;;;;;;18.70;10.53;;;-2.40;64.20;;;-3.29;64.89;96508.69;5085871;28;20472;-74
2022/12/14 08:13:45;;;;;;;15.73;11.83;;;-2.40;64.40;;;-3.41;64.91;96487.06;5090491;28;20523;-75
2022/12/14 08:16:15;;;;;;;18.63;11.53;;;-2.40;64.20;;;-3.09;64.68;96506.56;5083381;28;20452;-75
2022/12/14 08:18:44;;;;;;;16.00;10.00;;;-2.30;64.30;;;-2.85;63.60;96486.38;5114810;27;20451;-74
2022/12/14 08:21:14;;;;;;;19.20;11.50;;;-2.10;64.10;;;-2.90;63.66;96476.31;5079161;28;20468;-73
2022/12/14 08:23:41;;;;;;;18.40;10.13;;;-2.10;63.60;;;-2.78;63.51;96481.25;5077956;28;20460;-74
2022/12/14 08:26:09;;;;;;;17.63;11.40;;;-2.00;63.30;;;-2.79;63.13;96475.13;5077562;28;20449;-75
2022/12/14 08:28:36;;;;;;;18.57;11.60;;;-2.00;63.10;;;-2.97;63.28;96456.00;5080691;28;20537;-74
2022/12/14 08:31:06;;;;;;;19.47;11.33;;;-2.00;63.10;;;-2.90;63.44;96471.03;5082716;28;20578;-75
2022/12/14 08:33:35;;;;;;;15.70;10.33;;;-2.00;62.70;;;-2.70;63.28;96457.41;5078268;28;20456;-85
2022/12/14 08:36:08;;;;;;;18.40;14.18;;;-1.90;62.80;;;-2.99;63.02;96449.06;5100669;27;20813;-72
2022/12/14 08:38:36;;;;;;;15.90;11.67;;;-2.00;62.10;;;-2.97;63.36;96435.66;5077680;28;20298;-74
2022/12/14 08:41:04;;;;;;;18.40;12.40;;;-2.00;62.40;;;-2.82;63.44;96434.97;5073634;28;20469;-73
2022/12/14 08:43:32;;;;;;;25.90;11.87;;;-2.00;62.60;;;-2.59;63.33;96427.97;5077786;28;20478;-76
2022/12/14 08:45:59;;;;;;;15.67;9.93;;;-1.80;62.60;;;-2.71;62.30;96413.47;5076560;28;20466;-73
2022/12/14 08:48:26;;;;;;;19.07;12.17;;;-1.80;61.90;;;-2.66;62.51;96405.81;5079912;28;20532;-75
2022/12/14 08:51:02;;;;;;;17.70;10.63;;;-1.80;62.00;;;-2.65;62.76;96407.50;5081279;28;20446;-73
2022/12/14 08:53:29;;;;;;;15.80;9.83;;;-1.70;62.20;;;-2.46;62.62;96395.66;5083221;28;20800;-75
2022/12/14 08:55:57;;;;;;;19.07;12.03;;;-1.70;61.80;;;-2.81;61.48;96339.63;5083206;28;20443;-76
2022/12/14 08:58:25;;;;;;;22.17;11.17;;;-1.60;61.50;;;-2.44;61.47;96390.22;5072089;28;20460;-72
2022/12/14 09:01:01;;;;;;;19.93;10.47;;;-1.60;61.00;;;-2.60;62.23;96378.72;5074856;28;20501;-72
2022/12/14 09:03:29;;;;;;;16.63;10.60;;;-1.60;61.40;;;-2.51;61.68;96383.94;5077118;28;20452;-73
2022/12/14 09:06:01;;;;;;;17.97;11.30;;;-1.50;61.10;;;-2.15;61.69;96381.59;5091153;28;20457;-71
2022/12/14 09:08:30;;;;;;;24.10;11.93;;;-1.30;61.60;;;-2.15;61.07;96386.09;5076713;28;20480;-69
2022/12/14 09:10:57;;;;;;;16.83;11.07;;;-1.30;60.80;;;-2.17;61.17;96361.63;5071089;28;20449;-70
2022/12/14 09:13:25;;;;;;;18.33;11.03;;;-1.30;60.50;;;-2.12;60.53;96396.31;5078216;28;20463;-72
2022/12/14 09:15:59;;;;;;;16.90;10.17;;;-1.30;60.10;;;-2.10;60.24;96402.25;5072057;28;20537;-72
2022/12/14 09:18:28;;;;;;;32.83;12.67;;;-1.30;60.10;;;-1.90;60.71;96409.72;5066414;28;20452;-71
2022/12/14 09:20:56;;;;;;;21.93;12.93;;;-1.20;60.20;;;-2.43;61.79;96407.72;5077425;28;20458;-76
2022/12/14 09:23:25;;;;;;;18.33;12.37;;;-1.40;60.30;;;-2.52;62.29;96379.66;5113650;27;20844;-79
2022/12/14 09:26:02;;;;;;;15.00;10.40;;;-1.50;60.70;;;-2.48;61.38;96402.94;5080763;28;20885;-81
2022/12/14 09:28:31;;;;;;;14.63;10.87;;;-1.50;60.30;;;-2.31;62.15;96390.47;5077656;28;20465;-83
2022/12/14 09:31:01;;;;;;;29.40;12.23;;;-1.50;60.90;;;-2.19;61.92;96395.38;5082053;28;20456;-81
2022/12/14 09:33:29;;;;;;;15.67;11.90;;;-1.40;60.60;;;-2.38;61.96;96378.91;5082576;28;20581;-81
2022/12/14 09:36:02;;;;;;;16.00;10.23;;;-1.40;60.60;;;-2.68;61.39;96299.41;5100912;28;20448;-81
2022/12/14 09:38:31;;;;;;;19.03;12.37;;;-1.40;60.40;;;-2.37;62.19;96367.34;5094534;28;20980;-80
2022/12/14 09:41:01;;;;;;;12.60;10.03;;;-1.50;60.50;;;-2.45;61.67;96354.19;5108413;27;20525;-81
2022/12/14 09:43:41;;;;;;;25.10;12.67;;;-1.40;60.20;;;-2.37;61.79;96375.28;5080457;28;20999;-85
2022/12/14 09:46:27;;;;;;;15.33;10.47;;;-1.40;60.10;;;-2.38;62.16;96381.56;5110062;27;20452;-81
2022/12/14 09:48:56;;;;;;;18.90;11.30;;;-1.50;60.20;;;-2.25;61.80;96385.47;5079506;28;20835;-79
2022/12/14 09:51:33;;;;;;;20.07;11.83;;;-1.40;60.50;;;-2.19;62.79;96395.38;5083855;28;20464;-81
2022/12/14 09:54:07;;;;;;;17.63;12.23;;;-1.40;61.20;;;-2.37;63.53;96377.13;5084474;28;20447;-81
2022/12/14 09:56:34;;;;;;;13.07;10.80;;;-1.50;61.80;;;-2.45;64.42;96375.34;5082649;28;20450;-80
2022/12/14 09:59:04;;;;;;;15.57;11.50;;;-1.50;62.50;;;-2.47;64.34;96377.34;5091317;28;20448;-79
2022/12/14 10:02:00;;;;;;;25.83;13.30;;;-1.60;62.90;;;-2.64;66.01;96393.28;5079166;28;20460;-81
2022/12/14 10:04:42;;;;;;;15.10;11.13;;;-1.80;63.90;;;-2.64;65.87;96385.34;5062318;28;20502;-80
2022/12/14 10:07:20;;;;;;;15.30;11.40;;;-1.80;64.50;;;-2.74;66.67;96395.31;5080480;28;20457;-80
2022/12/14 10:09:55;;;;;;;15.30;10.20;;;-1.90;64.60;;;-2.79;68.08;96401.09;5111534;28;20933;-80
2022/12/14 10:12:35;;;;;;;22.80;12.10;;;-1.90;66.00;;;-2.67;69.51;96380.38;5084833;28;20448;-80
2022/12/14 10:15:22;;;;;;;15.37;11.50;;;-1.80;67.80;;;-2.54;70.89;96410.75;5081680;28;20454;-81
2022/12/14 10:18:26;;;;;;;18.63;12.70;;;-1.80;69.60;;;-2.72;73.08;96409.16;5085328;28;20874;-80
2022/12/14 10:21:01;;;;;;;18.87;12.90;;;-1.80;71.90;;;-2.82;75.73;96392.66;5084227;28;20518;-79
2022/12/14 10:23:35;;;;;;;22.90;12.77;;;-1.90;74.10;;;-2.70;76.29;96378.09;5094745;28;20457;-78
2022/12/14 10:26:07;;;;;;;19.77;12.70;;;-1.90;77.00;;;-2.94;77.01;96312.94;5087300;28;20454;-82
2022/12/14 10:28:45;;;;;;;21.13;13.23;;;-1.90;77.70;;;-2.83;77.46;96359.31;5105641;27;21150;-80
2022/12/14 10:31:17;;;;;;;24.52;17.15;;;-1.90;78.10;;;-2.87;78.24;96346.44;5078316;28;20451;-71
2022/12/14 10:33:46;;;;;;;19.97;14.50;;;-1.90;79.10;;;-2.50;78.09;96330.03;5080579;28;20201;-73
2022/12/14 10:36:20;;;;;;;20.07;12.20;;;-1.80;79.60;;;-2.86;78.08;96321.66;5080124;28;20469;-71
2022/12/14 10:38:58;;;;;;;19.43;14.27;;;-1.80;78.30;;;-2.56;77.79;96315.72;5071970;28;20460;-72